EW5937 Weather Reports


Display with metric or nautical units.
time (UTC)temp
F
wind
direction
speed
MPH
gust
MPH
rain 1hr
in
rain 24hr
in
rain mn
in
humidity
%
barometer
mb
20240222034153 40 70 0.0 1.0 0.00 0.00 0.00 54 1010.7
20240222033152 40 134 0.0 0.0 0.00 0.00 0.00 54 1010.4
20240222032152 40 132 0.0 0.0 0.00 0.00 0.00 51 1010.3
20240222031152 42 141 0.0 1.0 0.00 0.00 0.00 48 1010.1
20240222030152 43 86 0.0 3.0 0.00 0.00 0.00 44 1010.0
20240222025152 42 152 0.0 1.0 0.00 0.00 0.00 45 1009.6
20240222024152 43 41 0.0 1.0 0.00 0.00 0.00 54 1009.4
20240222023152 44 41 0.0 1.0 0.00 0.00 0.00 51 1009.3
20240222022152 45 37 0.0 2.0 0.00 0.00 0.00 49 1009.2
20240222021152 46 47 0.0 2.0 0.00 0.00 0.00 45 1009.2
20240222020152 47 285 0.0 1.0 0.00 0.00 0.00 41 1009.0
20240222015152 48 342 0.0 0.0 0.00 0.00 0.00 33 1009.0
20240222014152 49 340 0.0 5.0 0.00 0.00 0.00 29 1008.8
20240222013152 49 16 2.0 3.0 0.00 0.00 0.00 33 1008.9
20240222012152 49 119 1.0 4.0 0.00 0.00 0.00 27 1008.4
20240222011152 50 114 1.0 4.0 0.00 0.00 0.00 28 1008.2
20240222010152 51 133 2.0 5.0 0.00 0.00 0.00 26 1007.9
20240222005152 52 94 1.0 5.0 0.00 0.00 0.00 24 1007.9
20240222004152 53 100 0.0 4.0 0.00 0.00 0.00 23 1007.9
20240222003152 53 183 3.0 4.0 0.00 0.00 0.00 22 1007.7
20240222002152 54 113 0.0 3.0 0.00 0.00 0.00 21 1008.1
20240222001152 55 142 0.0 4.0 0.00 0.00 0.00 19 1007.8
20240222000152 56 349 0.0 5.0 0.00 0.00 0.00 18 1007.1
20240221235152 57 77 1.0 6.0 0.00 0.00 0.00 18 1006.7
20240221234151 58 108 0.0 4.0 0.00 0.00 0.00 16 1006.9
20240221233152 58 328 0.0 7.0 0.00 0.00 0.00 16 1006.8
20240221232152 58 29 2.0 5.0 0.00 0.00 0.00 16 1006.5
20240221231152 59 340 3.0 9.0 0.00 0.00 0.00 15 1006.3
20240221230151 60 49 2.0 6.0 0.00 0.00 0.00 14 1006.0
20240221225151 60 45 2.0 6.0 0.00 0.00 0.00 16 1005.6
20240221224152 61 295 0.0 7.0 0.00 0.00 0.00 15 1005.8
20240221223152 61 86 1.0 10.0 0.00 0.00 0.00 15 1005.5
20240221222151 62 91 3.0 12.0 0.00 0.00 0.00 15 1005.1
20240221221151 62 77 5.0 10.0 0.00 0.00 0.00 14 1005.2
20240221220151 62 93 0.0 11.0 0.00 0.00 0.00 13 1005.1
20240221215152 63 134 7.0 13.0 0.00 0.00 0.00 14 1005.0
20240221214151 62 341 3.0 12.0 0.00 0.00 0.00 17 1004.9
20240221213151 61 8 5.0 5.0 0.00 0.00 0.00 25 1004.7
20240221212151 62 359 2.0 5.0 0.00 0.00 0.00 26 1004.6
20240221211151 61 332 2.0 4.0 0.00 0.00 0.00 26 1004.4
20240221210151 60 343 1.0 4.0 0.00 0.00 0.00 32 1004.4
20240221205151 59 344 2.0 3.0 0.00 0.00 0.00 34 1004.3
20240221204152 58 354 3.0 4.0 0.00 0.00 0.00 35 1004.3
20240221203151 58 316 2.0 3.0 0.00 0.00 0.00 38 1004.4
20240221202151 58 351 2.0 3.0 0.00 0.00 0.00 37 1004.5
20240221201151 58 345 1.0 4.0 0.00 0.00 0.00 38 1004.8
20240221200151 57 323 1.0 4.0 0.00 0.00 0.00 40 1005.1
20240221195151 56 329 1.0 3.0 0.00 0.00 0.00 40 1005.2
20240221194151 56 351 1.0 4.0 0.00 0.00 0.00 40 1005.4
20240221193151 56 338 2.0 5.0 0.00 0.00 0.00 42 1005.5
20240221192151 57 12 2.0 6.0 0.00 0.00 0.00 41 1005.9
20240221191151 58 357 1.0 4.0 0.00 0.00 0.00 41 1005.9
20240221190151 58 334 1.0 5.0 0.00 0.00 0.00 37 1006.3
20240221185151 57 357 2.0 4.0 0.00 0.00 0.00 38 1006.3
20240221184151 57 8 2.0 5.0 0.00 0.00 0.00 39 1006.6
20240221183151 57 351 2.0 4.0 0.00 0.00 0.00 40 1006.8
20240221182151 56 352 2.0 3.0 0.00 0.00 0.00 41 1007.1
20240221181151 55 323 0.0 3.0 0.00 0.00 0.00 43 1007.3
20240221180151 54 359 1.0 4.0 0.00 0.00 0.00 45 1007.4
20240221175151 54 295 1.0 3.0 0.00 0.00 0.00 48 1007.7
20240221174151 52 60 1.0 3.0 0.00 0.00 0.00 47 1007.8
20240221173151 52 10 1.0 4.0 0.00 0.00 0.00 48 1008.2
20240221172151 51 1 0.0 4.0 0.00 0.00 0.00 49 1008.5
20240221171151 50 31 2.0 6.0 0.00 0.00 0.00 50 1008.7
20240221170151 51 330 0.0 4.0 0.00 0.00 0.00 49 1008.8
20240221165151 52 355 2.0 3.0 0.00 0.00 0.00 45 1009.0
20240221164151 53 350 0.0 2.0 0.00 0.00 0.00 44 1009.0
20240221163151 53 354 0.0 3.0 0.00 0.00 0.00 44 1009.1
20240221162151 53 104 0.0 2.0 0.00 0.00 0.00 43 1009.0
20240221161151 52 344 0.0 2.0 0.00 0.00 0.00 44 1009.2
20240221160151 52 59 0.0 2.0 0.00 0.00 0.00 42 1009.0
20240221155151 52 162 0.0 1.0 0.00 0.00 0.00 43 1009.3
20240221154151 49 130 0.0 1.0 0.00 0.00 0.00 47 1009.4
20240221153151 48 261 0.0 1.0 0.00 0.00 0.00 49 1009.8
20240221152150 46 147 0.0 0.0 0.00 0.00 0.00 52 1009.7
20240221151151 45 140 1.0 1.0 0.00 0.00 0.00 56 1010.1
20240221150150 41 86 0.0 0.0 0.00 0.00 0.00 63 1010.0
20240221145914 41 86 0.0 0.0 0.00 0.00 0.00 63 1010.1
20240221144914 38 98 0.0 0.0 0.00 0.00 0.00 68 1010.0
20240221143914 36 98 0.0 0.0 0.00 0.00 0.00 70 1010.1
20240221142914 35 98 0.0 0.0 0.00 0.00 0.00 69 1009.8
20240221141914 35 98 0.0 0.0 0.00 0.00 0.00 68 1009.9
20240221140914 34 98 0.0 0.0 0.00 0.00 0.00 67 1010.0
20240221135914 35 98 0.0 0.0 0.00 0.00 0.00 66 1010.0
20240221134914 35 98 0.0 0.0 0.00 0.00 0.00 66 1009.9
20240221133913 36 98 0.0 0.0 0.00 0.00 0.00 66 1009.7
20240221132914 36 91 0.0 0.0 0.00 0.00 0.00 65 1009.7
20240221131913 36 91 0.0 0.0 0.00 0.00 0.00 65 1010.0
20240221130914 37 91 0.0 0.0 0.00 0.00 0.00 65 1010.2
20240221125913 37 91 0.0 0.0 0.00 0.00 0.00 65 1010.3
20240221124913 36 58 0.0 0.0 0.00 0.00 0.00 66 1010.2
20240221123914 37 58 0.0 0.0 0.00 0.00 0.00 65 1010.2
20240221122913 38 44 0.0 0.0 0.00 0.00 0.00 64 1010.3
20240221121914 38 44 0.0 0.0 0.00 0.00 0.00 65 1010.4
20240221120913 38 345 0.0 0.0 0.00 0.00 0.00 64 1010.3
20240221115913 39 329 0.0 0.0 0.00 0.00 0.00 63 1010.4
20240221114913 39 328 0.0 0.0 0.00 0.00 0.00 63 1010.6
20240221113913 39 328 0.0 1.0 0.00 0.00 0.00 65 1010.6
20240221112913 39 209 0.0 0.0 0.00 0.00 0.00 66 1010.8
20240221111913 39 180 0.0 1.0 0.00 0.00 0.00 65 1010.8
20240221110913 39 121 0.0 0.0 0.00 0.00 0.00 64 1011.0
20240221105914 40 121 0.0 0.0 0.00 0.00 0.00 63 1011.0
20240221104913 39 105 0.0 1.0 0.00 0.00 0.00 64 1011.1
20240221103913 39 120 0.0 1.0 0.00 0.00 0.00 65 1011.2
20240221102913 39 166 0.0 1.0 0.00 0.00 0.00 65 1011.1
20240221101913 39 128 0.0 0.0 0.00 0.00 0.00 65 1011.0
20240221100913 40 119 0.0 1.0 0.00 0.00 0.00 63 1011.5
20240221095913 41 207 0.0 1.0 0.00 0.00 0.00 61 1011.3
20240221094913 41 288 1.0 2.0 0.00 0.00 0.00 62 1011.4
20240221093913 41 227 0.0 1.0 0.00 0.00 0.00 61 1011.9
20240221092913 42 226 0.0 1.0 0.00 0.00 0.00 61 1012.2
20240221091913 42 140 0.0 1.0 0.00 0.00 0.00 61 1012.4
20240221090913 41 326 0.0 1.0 0.00 0.00 0.00 63 1012.4
20240221085913 40 334 0.0 2.0 0.00 0.00 0.00 64 1012.3
20240221084913 40 122 1.0 1.0 0.00 0.00 0.00 63 1012.7
20240221083913 40 184 0.0 0.0 0.00 0.00 0.00 63 1012.7
20240221082913 41 210 0.0 1.0 0.00 0.00 0.00 62 1012.7
20240221081913 41 224 0.0 0.0 0.00 0.00 0.00 61 1012.8
20240221080913 41 269 0.0 0.0 0.00 0.00 0.00 62 1012.8
20240221075913 41 179 0.0 1.0 0.00 0.00 0.00 62 1012.9
20240221074913 41 102 0.0 1.0 0.00 0.00 0.00 61 1012.9
20240221073913 41 223 0.0 0.0 0.00 0.00 0.00 61 1013.1
20240221072913 42 223 1.0 1.0 0.00 0.00 0.00 61 1013.5
20240221071913 42 136 0.0 1.0 0.00 0.00 0.00 60 1013.7
20240221070913 43 161 0.0 0.0 0.00 0.00 0.00 58 1013.8
20240221065913 43 161 0.0 1.0 0.00 0.00 0.00 58 1014.0
20240221064913 43 223 0.0 0.0 0.00 0.00 0.00 58 1013.9
20240221063913 43 223 0.0 0.0 0.00 0.00 0.00 57 1014.0
20240221062913 44 223 0.0 0.0 0.00 0.00 0.00 56 1013.8
20240221061913 45 223 0.0 1.0 0.00 0.00 0.00 55 1013.8
20240221060912 44 210 0.0 1.0 0.00 0.00 0.00 55 1013.8
20240221055912 45 200 0.0 0.0 0.00 0.00 0.00 53 1013.7
20240221054912 46 200 0.0 0.0 0.00 0.00 0.00 53 1013.7
20240221053913 45 154 0.0 1.0 0.00 0.00 0.00 53 1013.9
20240221052912 45 192 0.0 2.0 0.00 0.00 0.00 54 1014.1
20240221051912 44 110 0.0 1.0 0.00 0.00 0.00 55 1014.1
20240221050912 45 120 0.0 0.0 0.00 0.00 0.00 54 1014.1
20240221045913 45 120 0.0 1.0 0.00 0.00 0.00 53 1014.2
20240221044913 45 133 1.0 3.0 0.00 0.00 0.00 53 1014.1
20240221043913 45 122 0.0 1.0 0.00 0.00 0.00 53 1014.0
20240221042912 45 122 0.0 0.0 0.00 0.00 0.00 52 1014.1
20240221041913 45 122 0.0 1.0 0.00 0.00 0.00 52 1014.0
20240221040913 45 258 0.0 1.0 0.00 0.00 0.00 52 1014.1
20240221035912 46 273 0.0 1.0 0.00 0.00 0.00 51 1014.0
20240221034912 46 203 0.0 0.0 0.00 0.00 0.00 50 1014.0